createdAt,value
2022-10-03T00:01:33.700Z,100.00
2022-10-03T00:04:12.217Z,100.00
2022-10-03T00:06:49.013Z,100.00
2022-10-03T00:09:37.555Z,100.00
2022-10-03T00:12:13.657Z,100.00
2022-10-03T00:14:49.210Z,100.00
2022-10-03T00:17:23.251Z,100.00
2022-10-03T00:19:57.626Z,100.00
2022-10-03T00:22:35.778Z,100.00
2022-10-03T00:25:16.968Z,100.00
2022-10-03T00:27:50.237Z,100.00
2022-10-03T00:30:21.782Z,100.00
2022-10-03T00:33:05.675Z,100.00
2022-10-03T00:35:50.361Z,100.00
2022-10-03T00:38:44.565Z,100.00
2022-10-03T00:41:46.204Z,100.00
2022-10-03T00:44:53.472Z,100.00
2022-10-03T00:47:34.032Z,100.00
2022-10-03T00:50:26.060Z,100.00
2022-10-03T00:53:15.257Z,100.00
2022-10-03T00:55:56.564Z,100.00
2022-10-03T00:58:50.848Z,100.00
2022-10-03T01:01:35.821Z,100.00
2022-10-03T01:04:21.872Z,100.00
2022-10-03T01:06:57.947Z,100.00
2022-10-03T01:09:38.108Z,100.00
2022-10-03T01:12:16.643Z,100.00
2022-10-03T01:15:00.206Z,100.00
2022-10-03T01:17:35.453Z,100.00
2022-10-03T01:20:13.509Z,100.00
2022-10-03T01:23:09.721Z,100.00
2022-10-03T01:25:42.371Z,100.00
2022-10-03T01:29:01.661Z,100.00
2022-10-03T01:31:36.307Z,100.00
2022-10-03T01:34:11.392Z,100.00
2022-10-03T01:36:44.305Z,100.00
2022-10-03T01:39:17.784Z,100.00
2022-10-03T01:41:51.803Z,100.00
2022-10-03T01:44:26.005Z,100.00
2022-10-03T01:46:59.141Z,100.00
2022-10-03T01:49:34.265Z,100.00
2022-10-03T01:52:06.677Z,100.00
2022-10-03T01:54:40.654Z,100.00
2022-10-03T01:57:16.688Z,100.00
2022-10-03T01:59:52.001Z,100.00
2022-10-03T02:02:29.543Z,100.00
2022-10-03T02:05:04.815Z,100.00
2022-10-03T02:07:42.521Z,100.00
2022-10-03T02:10:21.867Z,100.00
2022-10-03T02:12:57.987Z,100.00
2022-10-03T02:15:30.309Z,100.00
2022-10-03T02:18:02.594Z,100.00
2022-10-03T02:20:36.534Z,100.00
2022-10-03T02:23:24.688Z,100.00
2022-10-03T02:26:01.861Z,100.00
2022-10-03T02:28:38.241Z,100.00
2022-10-03T02:31:30.316Z,100.00
2022-10-03T02:34:17.734Z,100.00
2022-10-03T02:37:16.279Z,100.00
2022-10-03T02:40:31.115Z,100.00
2022-10-03T02:43:27.079Z,100.00
2022-10-03T02:46:30.253Z,100.00
2022-10-03T02:49:35.189Z,100.00
2022-10-03T02:52:44.890Z,100.00
2022-10-03T02:55:31.456Z,100.00
2022-10-03T02:58:39.539Z,100.00
2022-10-03T03:01:44.426Z,100.00
2022-10-03T03:04:42.083Z,100.00
2022-10-03T03:07:38.317Z,100.00
2022-10-03T03:10:33.944Z,100.00
2022-10-03T03:13:19.069Z,100.00
2022-10-03T03:16:33.243Z,100.00
2022-10-03T03:19:21.027Z,100.00
2022-10-03T03:21:55.313Z,100.00
2022-10-03T03:24:38.107Z,100.00
2022-10-03T03:27:18.811Z,100.00
2022-10-03T03:29:53.193Z,100.00
2022-10-03T03:32:29.825Z,100.00
2022-10-03T03:35:08.452Z,100.00
2022-10-03T03:37:45.347Z,100.00
2022-10-03T03:40:32.455Z,100.00
2022-10-03T03:43:13.755Z,100.00
2022-10-03T03:45:48.558Z,100.00
2022-10-03T03:48:38.497Z,100.00
2022-10-03T03:51:16.149Z,100.00
2022-10-03T03:54:02.689Z,100.00
2022-10-03T03:56:51.297Z,100.00
2022-10-03T03:59:31.571Z,100.00
2022-10-03T04:02:10.896Z,100.00
2022-10-03T04:04:53.239Z,100.00
2022-10-03T04:07:29.933Z,100.00
2022-10-03T04:10:21.134Z,100.00
2022-10-03T04:12:59.195Z,100.00
2022-10-03T04:15:36.725Z,100.00
2022-10-03T04:18:47.819Z,100.00
2022-10-03T04:21:30.694Z,100.00
2022-10-03T04:24:22.013Z,100.00
2022-10-03T04:27:08.275Z,100.00
2022-10-03T04:29:49.865Z,100.00
2022-10-03T04:32:43.563Z,100.00
2022-10-03T04:35:31.043Z,100.00
2022-10-03T04:38:12.209Z,100.00
2022-10-03T04:40:47.382Z,100.00
2022-10-03T04:43:26.211Z,100.00
2022-10-03T04:46:03.369Z,100.00
2022-10-03T04:48:38.155Z,100.00
2022-10-03T04:51:12.991Z,100.00
2022-10-03T04:53:49.170Z,100.00
2022-10-03T04:56:39.789Z,100.00
2022-10-03T04:59:23.415Z,100.00
2022-10-03T05:01:56.915Z,100.00
2022-10-03T05:04:31.199Z,100.00
2022-10-03T05:07:08.484Z,100.00
2022-10-03T05:09:43.465Z,100.00
2022-10-03T05:12:17.973Z,100.00
2022-10-03T05:14:58.881Z,100.00
2022-10-03T05:17:35.560Z,100.00
2022-10-03T05:20:25.984Z,100.00
2022-10-03T05:23:01.881Z,100.00
2022-10-03T05:25:40.716Z,100.00
2022-10-03T05:28:18.986Z,100.00
2022-10-03T05:30:54.560Z,100.00
2022-10-03T05:33:31.655Z,100.00
2022-10-03T05:36:10.332Z,100.00
2022-10-03T05:39:16.605Z,100.00
2022-10-03T05:42:17.738Z,100.00
2022-10-03T05:44:44.905Z,100.00
2022-10-03T05:47:41.804Z,100.00
2022-10-03T05:50:42.099Z,100.00
2022-10-03T05:53:25.830Z,100.00
2022-10-03T05:56:03.697Z,100.00
2022-10-03T05:58:51.411Z,100.00
2022-10-03T06:01:38.633Z,100.00
2022-10-03T06:04:30.381Z,100.00
2022-10-03T06:07:09.640Z,100.00
2022-10-03T06:10:16.132Z,100.00
2022-10-03T06:12:49.412Z,100.00
2022-10-03T06:15:31.269Z,100.00
2022-10-03T06:18:04.593Z,100.00
2022-10-03T06:21:15.800Z,100.00
2022-10-03T06:24:28.568Z,100.00
2022-10-03T06:27:35.874Z,100.00
2022-10-03T06:30:21.948Z,100.00
2022-10-03T06:33:28.697Z,100.00
2022-10-03T06:36:27.804Z,100.00
2022-10-03T06:39:33.044Z,100.00
2022-10-03T06:42:22.636Z,100.00
2022-10-03T06:45:30.675Z,100.00
2022-10-03T06:48:15.197Z,100.00
2022-10-03T06:50:55.470Z,100.00
2022-10-03T06:53:51.367Z,100.00
2022-10-03T06:56:55.738Z,100.00
2022-10-03T06:59:43.169Z,100.00
2022-10-03T07:02:44.757Z,100.00
2022-10-03T07:05:49.899Z,100.00
2022-10-03T07:08:57.869Z,100.00
2022-10-03T07:11:56.172Z,100.00
2022-10-03T07:15:38.153Z,100.00
2022-10-03T07:18:30.034Z,100.00
2022-10-03T07:21:21.027Z,100.00
2022-10-03T07:24:15.250Z,100.00
2022-10-03T07:27:11.969Z,100.00
2022-10-03T07:30:00.334Z,100.00
2022-10-03T07:32:43.543Z,100.00
2022-10-03T07:35:50.216Z,100.00
2022-10-03T07:39:00.537Z,100.00
2022-10-03T07:41:56.664Z,100.00
2022-10-03T07:44:56.134Z,100.00
2022-10-03T07:47:51.479Z,100.00
2022-10-03T07:51:01.587Z,100.00
2022-10-03T07:54:08.156Z,100.00
2022-10-03T07:56:58.309Z,100.00
2022-10-03T07:59:53.985Z,100.00
2022-10-03T08:02:50.218Z,100.00
2022-10-03T08:05:42.232Z,100.00
2022-10-03T08:08:50.428Z,100.00
2022-10-03T08:11:46.047Z,100.00
2022-10-03T08:14:20.245Z,100.00
2022-10-03T08:17:21.314Z,100.00
2022-10-03T08:20:13.362Z,100.00
2022-10-03T08:22:47.889Z,100.00
2022-10-03T08:25:28.329Z,100.00
2022-10-03T08:28:11.415Z,100.00
2022-10-03T08:30:55.749Z,100.00
2022-10-03T08:33:45.635Z,100.00
2022-10-03T08:36:50.492Z,100.00
2022-10-03T08:39:45.839Z,100.00
2022-10-03T08:42:45.910Z,100.00
2022-10-03T08:45:51.978Z,100.00
2022-10-03T08:49:05.371Z,100.00
2022-10-03T08:51:54.718Z,100.00
2022-10-03T08:54:51.000Z,100.00
2022-10-03T08:57:55.932Z,100.00
2022-10-03T09:00:25.518Z,100.00
2022-10-03T09:03:41.933Z,100.00
2022-10-03T09:06:58.687Z,100.00
2022-10-03T09:10:11.838Z,100.00
2022-10-03T09:13:07.171Z,100.00
2022-10-03T09:16:07.089Z,100.00
2022-10-03T09:18:54.647Z,100.00
2022-10-03T09:21:53.899Z,100.00
2022-10-03T09:24:34.381Z,100.00
2022-10-03T09:27:12.624Z,100.00
2022-10-03T09:30:08.280Z,100.00
2022-10-03T09:32:56.359Z,100.00
2022-10-03T09:35:54.359Z,100.00
2022-10-03T09:39:04.462Z,100.00
2022-10-03T09:42:01.605Z,100.00
2022-10-03T09:45:08.600Z,100.00
2022-10-03T09:48:22.240Z,100.00
2022-10-03T09:51:23.529Z,100.00
2022-10-03T09:54:25.404Z,100.00
2022-10-03T09:57:22.922Z,100.00
2022-10-03T10:00:06.501Z,100.00
2022-10-03T10:03:05.404Z,100.00
2022-10-03T10:06:25.889Z,100.00
2022-10-03T10:09:27.920Z,100.00
2022-10-03T10:12:29.103Z,100.00
2022-10-03T10:15:27.690Z,100.00
2022-10-03T10:18:29.708Z,100.00
2022-10-03T10:21:35.384Z,100.00
2022-10-03T10:24:23.624Z,100.00
2022-10-03T10:27:28.410Z,100.00
2022-10-03T10:30:32.294Z,100.00
2022-10-03T10:33:49.490Z,100.00
2022-10-03T10:37:07.459Z,100.00
2022-10-03T10:40:28.764Z,100.00
2022-10-03T10:43:48.421Z,100.00
2022-10-03T10:47:14.443Z,100.00
2022-10-03T10:50:27.476Z,100.00
2022-10-03T10:53:47.812Z,100.00
2022-10-03T10:56:59.972Z,100.00
2022-10-03T11:00:03.263Z,100.00
2022-10-03T11:03:07.932Z,100.00
2022-10-03T11:06:08.331Z,100.00
2022-10-03T11:09:14.016Z,100.00
2022-10-03T11:12:21.810Z,100.00
2022-10-03T11:15:26.034Z,100.00
2022-10-03T11:18:43.102Z,100.00
2022-10-03T11:21:37.626Z,100.00
2022-10-03T11:24:23.777Z,100.00
2022-10-03T11:27:33.230Z,100.00
2022-10-03T11:30:34.543Z,100.00
2022-10-03T11:33:43.997Z,100.00
2022-10-03T11:36:52.990Z,100.00
2022-10-03T11:39:30.199Z,100.00
2022-10-03T11:42:07.673Z,100.00
2022-10-03T11:44:39.205Z,100.00
2022-10-03T11:47:32.235Z,83.99
2022-10-03T11:50:22.306Z,67.35
2022-10-03T11:53:10.584Z,55.60
2022-10-03T11:55:44.351Z,57.19
2022-10-03T11:58:34.046Z,60.27
2022-10-03T12:01:17.884Z,74.04
2022-10-03T12:03:53.183Z,62.02
2022-10-03T12:06:56.623Z,63.87
2022-10-03T12:09:33.533Z,64.90
2022-10-03T12:12:09.792Z,68.89
2022-10-03T12:14:44.949Z,78.51
2022-10-03T12:17:16.277Z,90.78
2022-10-03T12:19:54.785Z,93.91
2022-10-03T12:22:34.836Z,86.90
2022-10-03T12:25:08.846Z,87.45
2022-10-03T12:27:49.053Z,89.16
2022-10-03T12:30:21.695Z,74.59
2022-10-03T12:33:01.041Z,71.66
2022-10-03T12:35:39.589Z,65.15
2022-10-03T12:38:19.202Z,55.67
2022-10-03T12:40:54.465Z,44.53
2022-10-03T12:43:36.238Z,47.63
2022-10-03T12:46:11.641Z,49.00
2022-10-03T12:48:46.139Z,49.37
2022-10-03T12:51:37.571Z,61.54
2022-10-03T12:54:15.619Z,74.31
2022-10-03T12:56:48.957Z,77.88
2022-10-03T12:59:28.272Z,73.71
2022-10-03T13:02:21.864Z,73.63
2022-10-03T13:05:02.073Z,80.06
2022-10-03T13:07:35.561Z,89.76
2022-10-03T13:10:12.742Z,89.99
2022-10-03T13:12:49.510Z,86.47
2022-10-03T13:15:42.086Z,85.11
2022-10-03T13:18:40.886Z,90.97
2022-10-03T13:21:40.656Z,100.00
2022-10-03T13:24:04.891Z,99.87
2022-10-03T13:26:48.331Z,100.00
2022-10-03T13:29:27.069Z,100.00
2022-10-03T13:32:09.392Z,100.00
2022-10-03T13:34:50.253Z,100.00
2022-10-03T13:37:27.902Z,100.00
2022-10-03T13:40:04.067Z,100.00
2022-10-03T13:42:39.394Z,100.00
2022-10-03T13:45:15.810Z,100.00
2022-10-03T13:47:47.312Z,100.00
2022-10-03T13:50:20.194Z,100.00
2022-10-03T13:52:53.857Z,100.00
2022-10-03T13:55:30.193Z,100.00
2022-10-03T13:58:13.009Z,100.00
2022-10-03T14:01:03.638Z,100.00
2022-10-03T14:03:41.726Z,100.00
2022-10-03T14:06:20.623Z,100.00
2022-10-03T14:09:02.335Z,100.00
2022-10-03T14:11:41.431Z,100.00
2022-10-03T14:14:36.522Z,100.00
2022-10-03T14:17:10.545Z,100.00
2022-10-03T14:19:47.475Z,95.60
2022-10-03T14:22:29.534Z,84.80
2022-10-03T14:25:14.649Z,83.47
2022-10-03T14:27:57.072Z,80.46
2022-10-03T14:30:28.748Z,75.34
2022-10-03T14:33:17.484Z,71.53
2022-10-03T14:35:55.730Z,69.16
2022-10-03T14:39:02.283Z,66.95
2022-10-03T14:41:48.230Z,61.75
2022-10-03T14:44:23.731Z,59.93
2022-10-03T14:46:57.698Z,56.53
2022-10-03T14:50:01.482Z,69.29
2022-10-03T14:52:28.663Z,81.46
2022-10-03T14:55:04.856Z,87.58
2022-10-03T14:57:52.886Z,96.08
2022-10-03T15:00:29.066Z,100.00
2022-10-03T15:02:57.955Z,100.00
2022-10-03T15:05:35.980Z,100.00
2022-10-03T15:08:13.208Z,100.00
2022-10-03T15:10:44.275Z,100.00
2022-10-03T15:13:13.947Z,100.00
2022-10-03T15:15:43.607Z,100.00
2022-10-03T15:18:17.144Z,100.00
2022-10-03T15:20:47.115Z,100.00
2022-10-03T15:23:21.616Z,100.00
2022-10-03T15:25:54.494Z,100.00
2022-10-03T15:28:25.631Z,100.00
2022-10-03T15:30:56.701Z,100.00
2022-10-03T15:33:31.069Z,100.00
2022-10-03T15:36:05.447Z,100.00
2022-10-03T15:38:38.893Z,100.00
2022-10-03T15:41:12.913Z,100.00
2022-10-03T15:43:47.129Z,100.00
2022-10-03T15:46:28.027Z,100.00
2022-10-03T15:48:57.697Z,100.00
2022-10-03T15:51:28.916Z,100.00
2022-10-03T15:54:02.001Z,100.00
2022-10-03T15:56:35.362Z,100.00
2022-10-03T15:59:07.275Z,100.00
2022-10-03T16:01:39.951Z,100.00
2022-10-03T16:04:15.654Z,100.00
2022-10-03T16:06:49.562Z,100.00
2022-10-03T16:09:29.025Z,100.00
2022-10-03T16:12:12.811Z,100.00
2022-10-03T16:14:44.351Z,100.00
2022-10-03T16:17:17.595Z,100.00
2022-10-03T16:19:53.389Z,100.00
2022-10-03T16:22:26.954Z,100.00
2022-10-03T16:25:04.584Z,100.00
2022-10-03T16:27:36.304Z,100.00
2022-10-03T16:30:21.864Z,100.00
2022-10-03T16:32:54.920Z,100.00
2022-10-03T16:35:32.216Z,100.00
2022-10-03T16:38:01.981Z,100.00
2022-10-03T16:40:31.372Z,100.00
2022-10-03T16:43:09.085Z,100.00
2022-10-03T16:45:42.238Z,100.00
2022-10-03T16:48:36.817Z,100.00
2022-10-03T16:51:06.444Z,100.00
2022-10-03T16:53:35.305Z,100.00
2022-10-03T16:56:08.379Z,100.00
2022-10-03T16:58:41.982Z,100.00
2022-10-03T17:01:26.964Z,100.00
2022-10-03T17:04:02.638Z,100.00
2022-10-03T17:06:33.452Z,100.00
2022-10-03T17:09:05.916Z,100.00
2022-10-03T17:11:38.432Z,100.00
2022-10-03T17:14:10.178Z,100.00
2022-10-03T17:16:45.343Z,100.00
2022-10-03T17:19:23.175Z,100.00
2022-10-03T17:21:54.929Z,100.00
2022-10-03T17:24:31.618Z,100.00
2022-10-03T17:27:07.418Z,100.00
2022-10-03T17:29:42.349Z,100.00
2022-10-03T17:32:16.705Z,100.00
2022-10-03T17:34:48.433Z,100.00
2022-10-03T17:37:27.748Z,100.00
2022-10-03T17:39:58.905Z,100.00
2022-10-03T17:42:36.246Z,100.00
2022-10-03T17:45:13.754Z,100.00
2022-10-03T17:47:52.205Z,100.00
2022-10-03T17:50:25.217Z,100.00
2022-10-03T17:52:55.819Z,100.00
2022-10-03T17:55:27.580Z,100.00
2022-10-03T17:57:58.008Z,100.00
2022-10-03T18:00:28.328Z,100.00
2022-10-03T18:03:01.581Z,100.00
2022-10-03T18:05:34.132Z,100.00
2022-10-03T18:08:06.681Z,100.00
2022-10-03T18:10:38.030Z,100.00
2022-10-03T18:13:18.271Z,100.00
2022-10-03T18:16:19.741Z,100.00
2022-10-03T18:19:02.161Z,100.00
2022-10-03T18:21:54.510Z,100.00
2022-10-03T18:24:36.698Z,100.00
2022-10-03T18:27:14.771Z,100.00
2022-10-03T18:29:49.977Z,100.00
2022-10-03T18:32:23.419Z,100.00
2022-10-03T18:35:00.434Z,100.00
2022-10-03T18:37:51.454Z,100.00
2022-10-03T18:40:22.418Z,100.00
2022-10-03T18:42:52.004Z,100.00
2022-10-03T18:45:23.167Z,100.00
2022-10-03T18:47:56.706Z,100.00
2022-10-03T18:50:29.812Z,100.00
2022-10-03T18:53:01.864Z,100.00
2022-10-03T18:55:36.058Z,100.00
2022-10-03T18:58:16.006Z,100.00
2022-10-03T19:00:51.536Z,100.00
2022-10-03T19:03:25.608Z,100.00
2022-10-03T19:05:58.723Z,100.00
2022-10-03T19:08:29.901Z,100.00
2022-10-03T19:11:01.601Z,100.00
2022-10-03T19:13:33.246Z,100.00
2022-10-03T19:16:20.141Z,100.00
2022-10-03T19:18:58.346Z,100.00
2022-10-03T19:21:27.283Z,100.00
2022-10-03T19:24:02.983Z,100.00
2022-10-03T19:26:36.193Z,100.00
2022-10-03T19:29:07.233Z,100.00
2022-10-03T19:31:40.447Z,100.00
2022-10-03T19:34:21.207Z,100.00
2022-10-03T19:36:51.153Z,100.00
2022-10-03T19:39:20.562Z,100.00
2022-10-03T19:41:54.523Z,100.00
2022-10-03T19:44:25.203Z,100.00
2022-10-03T19:47:03.121Z,100.00
2022-10-03T19:49:55.690Z,100.00
2022-10-03T19:52:29.695Z,100.00
2022-10-03T19:55:03.441Z,100.00
2022-10-03T19:57:41.173Z,100.00
2022-10-03T20:00:31.020Z,100.00
2022-10-03T20:03:16.638Z,100.00
2022-10-03T20:05:54.098Z,100.00
2022-10-03T20:08:30.532Z,100.00
2022-10-03T20:11:08.196Z,100.00
2022-10-03T20:13:43.089Z,100.00
2022-10-03T20:16:15.962Z,100.00
2022-10-03T20:18:45.882Z,100.00
2022-10-03T20:21:19.862Z,100.00
2022-10-03T20:23:48.862Z,100.00
2022-10-03T20:26:23.997Z,100.00
2022-10-03T20:29:05.433Z,100.00
2022-10-03T20:31:34.656Z,100.00
2022-10-03T20:34:06.302Z,100.00
2022-10-03T20:36:40.315Z,100.00
2022-10-03T20:39:16.574Z,100.00
2022-10-03T20:41:59.701Z,100.00
2022-10-03T20:44:50.627Z,100.00
2022-10-03T20:47:22.747Z,100.00
2022-10-03T20:49:52.974Z,100.00
2022-10-03T20:52:24.550Z,100.00
2022-10-03T20:54:55.089Z,100.00
2022-10-03T20:57:24.836Z,100.00
2022-10-03T20:59:57.684Z,100.00
2022-10-03T21:02:29.737Z,100.00
2022-10-03T21:05:01.840Z,100.00
2022-10-03T21:07:38.004Z,100.00
2022-10-03T21:10:18.560Z,100.00
2022-10-03T21:12:50.060Z,100.00
2022-10-03T21:15:29.736Z,100.00
2022-10-03T21:17:59.675Z,100.00
2022-10-03T21:20:33.733Z,100.00
2022-10-03T21:23:07.108Z,100.00
2022-10-03T21:25:36.901Z,100.00
2022-10-03T21:28:06.180Z,100.00
2022-10-03T21:30:51.380Z,100.00
2022-10-03T21:33:21.504Z,100.00
2022-10-03T21:35:51.970Z,100.00
2022-10-03T21:38:26.923Z,100.00
2022-10-03T21:41:17.604Z,100.00
2022-10-03T21:43:51.997Z,100.00
2022-10-03T21:46:28.290Z,100.00
2022-10-03T21:49:08.700Z,100.00
2022-10-03T21:51:39.536Z,100.00
2022-10-03T21:54:25.313Z,100.00
2022-10-03T21:57:01.890Z,100.00
2022-10-03T22:00:05.966Z,100.00
2022-10-03T22:02:42.495Z,100.00
2022-10-03T22:05:20.169Z,100.00
2022-10-03T22:07:49.083Z,100.00
2022-10-03T22:10:21.906Z,100.00
2022-10-03T22:12:53.158Z,100.00
2022-10-03T22:15:27.818Z,100.00
2022-10-03T22:17:59.440Z,100.00
2022-10-03T22:20:30.114Z,100.00
2022-10-03T22:23:01.737Z,100.00
2022-10-03T22:25:48.550Z,100.00
2022-10-03T22:28:23.998Z,100.00
2022-10-03T22:30:59.306Z,100.00
2022-10-03T22:33:36.365Z,100.00
2022-10-03T22:36:05.410Z,100.00
2022-10-03T22:38:36.697Z,100.00
2022-10-03T22:41:11.605Z,100.00
2022-10-03T22:43:40.510Z,100.00
2022-10-03T22:46:09.917Z,100.00
2022-10-03T22:48:44.443Z,100.00
2022-10-03T22:51:14.557Z,100.00
2022-10-03T22:53:47.620Z,100.00
2022-10-03T22:56:41.267Z,100.00
2022-10-03T22:59:11.854Z,100.00
2022-10-03T23:01:44.681Z,100.00
2022-10-03T23:04:20.561Z,100.00
2022-10-03T23:07:10.727Z,100.00
2022-10-03T23:09:48.183Z,100.00
2022-10-03T23:12:20.223Z,100.00
2022-10-03T23:14:51.466Z,100.00
2022-10-03T23:17:37.107Z,100.00
2022-10-03T23:20:12.466Z,100.00
2022-10-03T23:22:43.703Z,100.00
2022-10-03T23:25:19.366Z,100.00
2022-10-03T23:28:00.412Z,100.00
2022-10-03T23:30:47.983Z,100.00
2022-10-03T23:33:18.929Z,100.00
2022-10-03T23:35:48.289Z,100.00
2022-10-03T23:38:58.861Z,100.00
2022-10-03T23:41:33.589Z,100.00
2022-10-03T23:44:03.909Z,100.00
2022-10-03T23:46:32.930Z,100.00
2022-10-03T23:49:03.101Z,100.00
2022-10-03T23:51:34.746Z,100.00
2022-10-03T23:54:05.390Z,100.00
2022-10-03T23:56:36.663Z,100.00
2022-10-03T23:59:20.275Z,100.00
